createdAt,value
2022-11-24T00:01:07.489Z,10.43
2022-11-24T00:03:34.827Z,10.65
2022-11-24T00:06:11.035Z,10.76
2022-11-24T00:08:39.570Z,10.93
2022-11-24T00:11:11.882Z,11.03
2022-11-24T00:13:41.736Z,11.01
2022-11-24T00:16:17.015Z,10.78
2022-11-24T00:18:45.804Z,10.70
2022-11-24T00:21:13.475Z,11.08
2022-11-24T00:23:40.259Z,10.70
2022-11-24T00:26:13.027Z,10.76
2022-11-24T00:28:40.488Z,10.02
2022-11-24T00:31:19.324Z,9.75
2022-11-24T00:33:48.034Z,10.25
2022-11-24T00:36:16.289Z,10.31
2022-11-24T00:38:43.361Z,10.39
2022-11-24T00:41:10.335Z,10.22
2022-11-24T00:43:37.030Z,10.48
2022-11-24T00:46:03.939Z,10.57
2022-11-24T00:48:31.222Z,10.50
2022-11-24T00:51:03.126Z,10.31
2022-11-24T00:53:30.498Z,9.80
2022-11-24T00:55:57.284Z,10.04
2022-11-24T00:58:24.987Z,10.32
2022-11-24T01:00:52.590Z,10.42
2022-11-24T01:03:20.634Z,9.98
2022-11-24T01:05:47.518Z,10.38
2022-11-24T01:08:14.317Z,10.49
2022-11-24T01:10:40.961Z,10.60
2022-11-24T01:13:07.690Z,10.70
2022-11-24T01:15:36.309Z,10.45
2022-11-24T01:18:04.159Z,10.67
2022-11-24T01:20:31.131Z,10.58
2022-11-24T01:22:57.869Z,10.65
2022-11-24T01:25:24.543Z,10.65
2022-11-24T01:27:51.424Z,10.51
2022-11-24T01:30:18.119Z,10.24
2022-11-24T01:32:44.721Z,10.17
2022-11-24T01:35:11.386Z,9.91
2022-11-24T01:37:37.935Z,9.52
2022-11-24T01:40:05.680Z,9.91
2022-11-24T01:42:50.452Z,10.24
2022-11-24T01:45:43.169Z,10.47
2022-11-24T01:48:22.046Z,10.66
2022-11-24T01:51:06.779Z,10.86
2022-11-24T01:53:33.567Z,10.76
2022-11-24T01:56:00.324Z,10.54
2022-11-24T01:58:30.650Z,10.71
2022-11-24T02:00:57.280Z,10.47
2022-11-24T02:03:28.193Z,10.06
2022-11-24T02:06:04.894Z,10.26
2022-11-24T02:08:43.863Z,10.38
2022-11-24T02:11:10.449Z,10.55
2022-11-24T02:13:39.251Z,10.76
2022-11-24T02:16:10.708Z,10.84
2022-11-24T02:18:39.551Z,10.99
2022-11-24T02:21:07.319Z,10.68
2022-11-24T02:23:45.093Z,10.83
2022-11-24T02:26:11.599Z,10.80
2022-11-24T02:28:38.805Z,10.79
2022-11-24T02:31:06.277Z,10.82
2022-11-24T02:33:34.310Z,11.03
2022-11-24T02:36:00.998Z,11.02
2022-11-24T02:38:35.370Z,10.94
2022-11-24T02:41:11.766Z,10.99
2022-11-24T02:43:54.675Z,10.96
2022-11-24T02:46:21.446Z,11.02
2022-11-24T02:48:48.180Z,11.07
2022-11-24T02:51:15.058Z,11.18
2022-11-24T02:53:41.692Z,11.11
2022-11-24T02:56:08.424Z,10.86
2022-11-24T02:58:35.306Z,10.90
2022-11-24T03:01:01.898Z,11.13
2022-11-24T03:03:28.590Z,11.09
2022-11-24T03:05:55.279Z,11.13
2022-11-24T03:08:21.915Z,11.19
2022-11-24T03:10:49.185Z,11.14
2022-11-24T03:13:15.973Z,10.81
2022-11-24T03:15:42.750Z,10.64
2022-11-24T03:18:09.444Z,10.49
2022-11-24T03:20:36.320Z,10.48
2022-11-24T03:23:02.983Z,10.85
2022-11-24T03:25:29.606Z,10.89
2022-11-24T03:27:58.135Z,11.01
2022-11-24T03:30:24.861Z,10.92
2022-11-24T03:32:53.775Z,10.91
2022-11-24T03:35:21.078Z,10.55
2022-11-24T03:37:47.995Z,10.78
2022-11-24T03:40:14.921Z,10.75
2022-11-24T03:42:41.568Z,10.36
2022-11-24T03:47:55.315Z,10.49
2022-11-24T03:50:21.897Z,10.74
2022-11-24T03:52:48.532Z,10.71
2022-11-24T03:55:15.266Z,10.77
2022-11-24T03:57:41.918Z,10.56
2022-11-24T04:00:09.481Z,10.69
2022-11-24T04:02:36.142Z,10.60
2022-11-24T04:05:02.836Z,10.55
2022-11-24T04:07:29.428Z,9.75
2022-11-24T04:09:56.089Z,10.24
2022-11-24T04:12:41.609Z,9.83
2022-11-24T04:15:08.827Z,10.20
2022-11-24T04:17:35.382Z,10.37
2022-11-24T04:20:02.358Z,10.72
2022-11-24T04:22:28.967Z,10.79
2022-11-24T04:24:55.631Z,10.66
2022-11-24T04:27:22.974Z,10.65
2022-11-24T04:29:50.931Z,10.75
2022-11-24T04:32:17.723Z,10.89
2022-11-24T04:34:44.348Z,11.01
2022-11-24T04:37:11.186Z,11.01
2022-11-24T04:39:37.852Z,11.09
2022-11-24T04:42:04.504Z,11.12
2022-11-24T04:44:31.222Z,11.17
2022-11-24T04:46:57.924Z,11.20
2022-11-24T04:49:24.661Z,11.27
2022-11-24T04:51:51.256Z,11.30
2022-11-24T04:54:17.917Z,11.24
2022-11-24T04:56:44.544Z,11.38
2022-11-24T04:59:14.889Z,11.26
2022-11-24T05:01:46.092Z,10.92
2022-11-24T05:04:15.276Z,10.88
2022-11-24T05:06:41.997Z,10.90
2022-11-24T05:09:08.860Z,11.16
2022-11-24T05:11:35.506Z,11.24
2022-11-24T05:14:02.167Z,10.95
2022-11-24T05:16:28.851Z,11.05
2022-11-24T05:18:55.493Z,11.16
2022-11-24T05:21:22.139Z,10.83
2022-11-24T05:23:48.946Z,10.75
2022-11-24T05:26:15.565Z,10.74
2022-11-24T05:28:42.264Z,10.71
2022-11-24T05:31:08.991Z,10.74
2022-11-24T05:33:36.230Z,10.87
2022-11-24T05:36:04.950Z,10.92
2022-11-24T05:38:32.043Z,11.02
2022-11-24T05:41:03.532Z,11.19
2022-11-24T05:43:30.210Z,11.15
2022-11-24T05:46:00.825Z,11.08
2022-11-24T05:48:28.055Z,11.28
2022-11-24T05:50:55.879Z,11.43
2022-11-24T05:53:23.442Z,11.32
2022-11-24T05:55:50.060Z,10.26
2022-11-24T05:58:16.928Z,10.72
2022-11-24T06:00:43.876Z,11.14
2022-11-24T06:03:12.089Z,11.34
2022-11-24T06:05:39.306Z,11.48
2022-11-24T06:08:05.978Z,11.49
2022-11-24T06:10:32.636Z,11.23
2022-11-24T06:12:59.186Z,11.28
2022-11-24T06:15:25.801Z,11.66
2022-11-24T06:17:56.700Z,11.75
2022-11-24T06:20:29.823Z,11.84
2022-11-24T06:23:00.013Z,11.52
2022-11-24T06:25:27.112Z,11.47
2022-11-24T06:27:53.811Z,11.49
2022-11-24T06:30:20.599Z,11.34
2022-11-24T06:32:49.714Z,11.56
2022-11-24T06:35:17.264Z,11.47
2022-11-24T06:37:44.175Z,11.50
2022-11-24T06:40:11.092Z,11.77
2022-11-24T06:42:38.034Z,11.59
2022-11-24T06:45:08.996Z,11.77
2022-11-24T06:47:36.472Z,11.57
2022-11-24T06:50:03.352Z,11.39
2022-11-24T06:52:29.985Z,11.04
2022-11-24T06:54:57.268Z,11.01
2022-11-24T06:57:23.934Z,10.94
2022-11-24T06:59:50.641Z,10.81
2022-11-24T07:02:17.295Z,10.94
2022-11-24T07:04:43.883Z,10.71
2022-11-24T07:07:10.589Z,11.03
2022-11-24T07:09:37.311Z,10.49
2022-11-24T07:12:04.892Z,10.14
2022-11-24T07:14:32.242Z,10.49
2022-11-24T07:16:59.044Z,10.61
2022-11-24T07:19:25.713Z,10.49
2022-11-24T07:21:52.302Z,10.85
2022-11-24T07:24:18.971Z,10.77
2022-11-24T07:26:45.660Z,10.99
2022-11-24T07:29:12.257Z,11.09
2022-11-24T07:31:39.220Z,10.76
2022-11-24T07:34:06.247Z,10.13
2022-11-24T07:36:32.839Z,10.08
2022-11-24T07:38:59.742Z,10.05
2022-11-24T07:41:26.389Z,9.94
2022-11-24T07:43:53.125Z,10.16
2022-11-24T07:46:20.269Z,10.68
2022-11-24T07:48:47.393Z,10.90
2022-11-24T07:51:14.247Z,11.02
2022-11-24T07:53:40.886Z,11.14
2022-11-24T07:56:09.130Z,10.43
2022-11-24T07:58:37.489Z,10.04
2022-11-24T08:01:12.567Z,9.06
2022-11-24T08:03:39.424Z,8.45
2022-11-24T08:08:52.907Z,9.08
2022-11-24T08:11:19.559Z,8.57
2022-11-24T08:13:46.458Z,8.23
2022-11-24T08:16:16.003Z,8.32
2022-11-24T08:18:43.855Z,8.21
2022-11-24T08:21:14.279Z,8.40
2022-11-24T08:23:41.832Z,7.86
2022-11-24T08:26:13.737Z,8.26
2022-11-24T08:28:40.345Z,8.14
2022-11-24T08:31:10.638Z,7.99
2022-11-24T08:33:37.892Z,7.92
2022-11-24T08:36:06.568Z,7.81
2022-11-24T08:38:33.172Z,7.67
2022-11-24T08:41:05.027Z,8.18
2022-11-24T08:43:31.798Z,8.22
2022-11-24T08:46:07.382Z,7.87
2022-11-24T08:48:37.741Z,7.68
2022-11-24T08:51:12.785Z,7.77
2022-11-24T08:53:39.981Z,8.08
2022-11-24T08:56:07.495Z,8.29
2022-11-24T08:58:34.978Z,8.15
2022-11-24T09:01:13.969Z,8.27
2022-11-24T09:03:46.550Z,8.08
2022-11-24T09:06:25.109Z,8.24
2022-11-24T09:08:54.325Z,9.00
2022-11-24T09:11:21.695Z,8.54
2022-11-24T09:13:48.496Z,8.49
2022-11-24T09:16:20.936Z,9.03
2022-11-24T09:18:48.142Z,9.19
2022-11-24T09:21:20.044Z,9.18
2022-11-24T09:23:51.469Z,9.33
2022-11-24T09:26:19.555Z,8.04
2022-11-24T09:28:47.099Z,8.27
2022-11-24T09:31:15.746Z,8.10
2022-11-24T09:33:43.159Z,8.00
2022-11-24T09:36:09.970Z,7.27
2022-11-24T09:38:36.732Z,7.92
2022-11-24T09:41:20.320Z,8.10
2022-11-24T09:44:11.427Z,8.01
2022-11-24T09:46:59.935Z,7.95
2022-11-24T09:49:51.533Z,7.24
2022-11-24T09:52:35.717Z,7.46
2022-11-24T09:55:05.447Z,7.42
2022-11-24T09:57:37.627Z,7.86
2022-11-24T10:00:12.940Z,8.04
2022-11-24T10:02:39.703Z,8.39
2022-11-24T10:05:07.147Z,8.18
2022-11-24T10:07:42.394Z,7.58
2022-11-24T10:10:25.050Z,6.97
2022-11-24T10:13:01.141Z,7.39
2022-11-24T10:15:46.093Z,7.38
2022-11-24T10:18:34.485Z,7.62
2022-11-24T10:21:13.040Z,7.45
2022-11-24T10:24:02.588Z,7.01
2022-11-24T10:26:36.739Z,6.86
2022-11-24T10:29:24.779Z,7.35
2022-11-24T10:31:55.067Z,7.07
2022-11-24T10:34:38.087Z,7.41
2022-11-24T10:37:10.605Z,7.04
2022-11-24T10:39:41.232Z,6.88
2022-11-24T10:42:36.994Z,6.68
2022-11-24T10:45:09.517Z,6.71
2022-11-24T10:47:36.224Z,6.34
2022-11-24T10:50:15.154Z,6.65
2022-11-24T10:52:45.298Z,7.11
2022-11-24T10:55:11.974Z,6.76
2022-11-24T10:57:40.533Z,6.64
2022-11-24T11:00:19.368Z,7.31
2022-11-24T11:02:48.685Z,7.24
2022-11-24T11:05:44.197Z,7.02
2022-11-24T11:08:14.157Z,7.32
2022-11-24T11:10:44.877Z,7.00
2022-11-24T11:13:29.552Z,7.13
2022-11-24T11:15:58.511Z,6.94
2022-11-24T11:18:33.542Z,6.93
2022-11-24T11:21:02.543Z,6.77
2022-11-24T11:23:32.458Z,7.01
2022-11-24T11:26:35.964Z,6.80
2022-11-24T11:35:13.626Z,7.35
2022-11-24T11:37:40.487Z,7.31
2022-11-24T11:40:17.138Z,7.34
2022-11-24T11:43:03.050Z,7.64
2022-11-24T11:45:37.979Z,7.47
2022-11-24T11:48:04.659Z,7.24
2022-11-24T11:51:21.692Z,7.32
2022-11-24T11:54:27.213Z,7.40
2022-11-24T11:57:03.522Z,6.96
2022-11-24T11:59:53.412Z,6.95
2022-11-24T12:02:28.914Z,7.25
2022-11-24T12:05:02.572Z,7.18
2022-11-24T12:07:56.643Z,6.77
2022-11-24T12:10:44.711Z,7.43
2022-11-24T12:13:49.871Z,7.53
2022-11-24T12:16:35.185Z,8.11
2022-11-24T12:19:24.881Z,7.97
2022-11-24T12:22:03.669Z,7.78
2022-11-24T12:24:39.139Z,8.11
2022-11-24T12:27:15.684Z,8.41
2022-11-24T12:29:53.647Z,7.85
2022-11-24T12:32:32.166Z,8.23
2022-11-24T12:35:03.471Z,8.42
2022-11-24T12:37:54.720Z,8.30
2022-11-24T12:40:43.640Z,8.06
2022-11-24T12:43:22.180Z,7.70
2022-11-24T12:46:09.957Z,7.64
2022-11-24T12:49:04.539Z,8.24
2022-11-24T12:51:39.786Z,7.31
2022-11-24T12:54:12.966Z,8.07
2022-11-24T12:57:32.945Z,7.89
2022-11-24T13:00:07.609Z,7.59
2022-11-24T13:03:05.562Z,7.08
2022-11-24T13:05:43.918Z,7.07
2022-11-24T13:08:11.067Z,7.46
2022-11-24T13:10:56.325Z,6.88
2022-11-24T13:13:30.310Z,7.27
2022-11-24T13:18:45.431Z,7.60
2022-11-24T13:21:36.577Z,7.16
2022-11-24T13:24:06.345Z,7.01
2022-11-24T13:26:41.546Z,7.09
2022-11-24T13:29:30.043Z,7.27
2022-11-24T13:32:02.886Z,7.08
2022-11-24T13:34:38.720Z,7.40
2022-11-24T13:37:40.682Z,7.61
2022-11-24T13:40:13.474Z,7.65
2022-11-24T13:42:57.787Z,7.70
2022-11-24T13:45:39.953Z,7.59
2022-11-24T13:48:18.828Z,8.15
2022-11-24T13:50:51.974Z,8.71
2022-11-24T13:53:47.657Z,8.50
2022-11-24T13:56:14.360Z,7.94
2022-11-24T13:58:43.017Z,8.44
2022-11-24T14:01:30.154Z,8.57
2022-11-24T14:04:34.196Z,8.29
2022-11-24T14:07:08.342Z,8.45
2022-11-24T14:09:36.087Z,8.56
2022-11-24T14:12:20.790Z,8.79
2022-11-24T14:14:48.969Z,8.09
2022-11-24T14:17:20.118Z,8.05
2022-11-24T14:19:48.897Z,7.91
2022-11-24T14:22:17.816Z,8.34
2022-11-24T14:24:50.983Z,8.11
2022-11-24T14:27:20.479Z,8.11
2022-11-24T14:29:55.501Z,8.56
2022-11-24T14:32:23.022Z,8.20
2022-11-24T14:34:50.976Z,7.91
2022-11-24T14:37:19.506Z,8.81
2022-11-24T14:39:46.784Z,9.03
2022-11-24T14:42:27.605Z,9.38
2022-11-24T14:44:58.708Z,9.04
2022-11-24T14:47:36.254Z,8.96
2022-11-24T14:50:11.199Z,8.83
2022-11-24T14:52:45.373Z,8.89
2022-11-24T14:55:25.531Z,8.34
2022-11-24T14:57:52.285Z,8.62
2022-11-24T15:00:24.870Z,7.93
2022-11-24T15:03:17.579Z,8.29
2022-11-24T15:05:54.611Z,8.46
2022-11-24T15:08:22.343Z,9.00
2022-11-24T15:10:55.433Z,8.74
2022-11-24T15:13:25.066Z,8.40
2022-11-24T15:16:04.012Z,8.20
2022-11-24T15:18:40.911Z,8.65
2022-11-24T15:21:08.907Z,8.30
2022-11-24T15:23:40.651Z,8.39
2022-11-24T15:26:07.233Z,8.83
2022-11-24T15:28:36.463Z,8.86
2022-11-24T15:31:05.255Z,8.81
2022-11-24T15:33:32.247Z,9.15
2022-11-24T15:35:59.758Z,9.36
2022-11-24T15:38:26.772Z,9.46
2022-11-24T15:40:56.327Z,9.45
2022-11-24T15:43:38.761Z,8.58
2022-11-24T15:46:10.369Z,8.47
2022-11-24T15:48:40.122Z,8.54
2022-11-24T15:51:11.357Z,9.03
2022-11-24T15:53:41.292Z,8.55
2022-11-24T15:56:15.275Z,8.81
2022-11-24T15:58:44.966Z,8.77
2022-11-24T16:01:12.000Z,8.75
2022-11-24T16:03:48.039Z,8.37
2022-11-24T16:06:24.069Z,8.38
2022-11-24T16:08:57.197Z,8.29
2022-11-24T16:11:26.945Z,8.77
2022-11-24T16:13:54.560Z,9.11
2022-11-24T16:16:30.273Z,8.60
2022-11-24T16:18:59.813Z,8.64
2022-11-24T16:21:26.518Z,8.27
2022-11-24T16:23:53.825Z,8.03
2022-11-24T16:26:23.395Z,8.50
2022-11-24T16:28:50.004Z,8.42
2022-11-24T16:31:18.047Z,8.26
2022-11-24T16:33:46.577Z,7.87
2022-11-24T16:36:15.910Z,8.26
2022-11-24T16:38:42.572Z,8.75
2022-11-24T16:41:10.572Z,7.99
2022-11-24T16:43:40.044Z,7.72
2022-11-24T16:46:25.050Z,7.57
2022-11-24T16:48:56.940Z,8.07
2022-11-24T16:51:30.117Z,8.03
2022-11-24T16:54:02.885Z,8.54
2022-11-24T16:56:32.874Z,9.07
2022-11-24T16:58:59.678Z,8.39
2022-11-24T17:01:26.441Z,8.79
2022-11-24T17:03:53.415Z,9.10
2022-11-24T17:06:22.333Z,8.96
2022-11-24T17:08:49.037Z,8.95
2022-11-24T17:11:24.062Z,9.20
2022-11-24T17:13:51.281Z,9.01
2022-11-24T17:16:22.519Z,9.00
2022-11-24T17:18:49.654Z,8.78
2022-11-24T17:21:19.076Z,8.90
2022-11-24T17:23:46.302Z,8.71
2022-11-24T17:26:15.279Z,8.54
2022-11-24T17:28:42.508Z,8.28
2022-11-24T17:31:10.004Z,8.32
2022-11-24T17:33:37.096Z,8.53
2022-11-24T17:36:05.201Z,8.84
2022-11-24T17:38:32.060Z,9.04
2022-11-24T17:40:58.870Z,9.05
2022-11-24T17:43:26.251Z,9.15
2022-11-24T17:45:54.825Z,8.69
2022-11-24T17:48:22.688Z,9.09
2022-11-24T17:50:58.229Z,8.50
2022-11-24T17:53:24.860Z,8.54
2022-11-24T17:55:51.430Z,8.27
2022-11-24T17:58:18.034Z,8.85
2022-11-24T18:00:44.657Z,8.35
2022-11-24T18:03:11.362Z,8.40
2022-11-24T18:05:38.276Z,8.07
2022-11-24T18:08:04.993Z,8.46
2022-11-24T18:10:34.809Z,8.73
2022-11-24T18:13:02.335Z,8.72
2022-11-24T18:15:28.966Z,8.73
2022-11-24T18:17:55.738Z,8.77
2022-11-24T18:20:22.391Z,8.09
2022-11-24T18:23:04.995Z,8.53
2022-11-24T18:25:33.248Z,8.58
2022-11-24T18:27:59.848Z,8.58
2022-11-24T18:30:26.455Z,8.41
2022-11-24T18:32:53.134Z,8.08
2022-11-24T18:35:19.774Z,8.34
2022-11-24T18:37:46.361Z,8.40
2022-11-24T18:40:14.285Z,8.45
2022-11-24T18:42:40.946Z,8.13
2022-11-24T18:45:08.133Z,7.97
2022-11-24T18:47:34.976Z,8.06
2022-11-24T18:50:02.349Z,8.06
2022-11-24T18:52:29.031Z,8.17
2022-11-24T18:54:55.693Z,8.48
2022-11-24T18:57:22.379Z,8.47
2022-11-24T18:59:49.039Z,8.71
2022-11-24T19:02:15.665Z,8.86
2022-11-24T19:04:42.354Z,8.08
2022-11-24T19:07:09.050Z,8.39
2022-11-24T19:09:35.954Z,8.75
2022-11-24T19:12:03.184Z,8.42
2022-11-24T19:14:30.758Z,8.52
2022-11-24T19:16:57.495Z,8.28
2022-11-24T19:19:24.080Z,8.21
2022-11-24T19:21:50.689Z,8.08
2022-11-24T19:24:17.235Z,8.49
2022-11-24T19:26:43.824Z,8.34
2022-11-24T19:29:10.428Z,8.28
2022-11-24T19:31:40.958Z,9.01
2022-11-24T19:34:08.203Z,9.00
2022-11-24T19:36:35.418Z,8.82
2022-11-24T19:39:04.817Z,9.07
2022-11-24T19:41:32.473Z,8.71
2022-11-24T19:43:59.666Z,8.35
2022-11-24T19:46:29.628Z,8.18
2022-11-24T19:49:00.189Z,8.38
2022-11-24T19:51:35.885Z,8.93
2022-11-24T19:54:03.990Z,8.36
2022-11-24T19:56:34.764Z,8.58
2022-11-24T19:59:04.167Z,9.24
2022-11-24T20:01:37.354Z,9.16
2022-11-24T20:04:06.657Z,9.24
2022-11-24T20:06:39.306Z,9.16
2022-11-24T20:09:08.530Z,9.13
2022-11-24T20:11:35.666Z,8.52
2022-11-24T20:14:02.541Z,8.94
2022-11-24T20:16:31.585Z,8.84
2022-11-24T20:19:00.820Z,9.37
2022-11-24T20:21:31.338Z,9.24
2022-11-24T20:24:03.922Z,9.16
2022-11-24T20:26:33.729Z,8.98
2022-11-24T20:29:01.279Z,9.28
2022-11-24T20:31:31.213Z,9.04
2022-11-24T20:33:58.881Z,9.00
2022-11-24T20:36:27.435Z,8.74
2022-11-24T20:38:54.576Z,8.59
2022-11-24T20:41:27.525Z,8.58
2022-11-24T20:43:55.682Z,8.82
2022-11-24T20:46:24.450Z,9.04
2022-11-24T20:48:52.056Z,8.56
2022-11-24T20:51:21.734Z,8.41
2022-11-24T20:53:53.852Z,8.82
2022-11-24T20:56:23.099Z,9.03
2022-11-24T20:58:49.895Z,8.38
2022-11-24T21:01:20.053Z,8.58
2022-11-24T21:03:47.995Z,8.56
2022-11-24T21:06:14.829Z,8.27
2022-11-24T21:08:42.673Z,8.37
2022-11-24T21:11:11.515Z,8.36
2022-11-24T21:13:39.844Z,8.16
2022-11-24T21:16:18.681Z,8.13
2022-11-24T21:18:49.353Z,8.00
2022-11-24T21:21:16.305Z,8.50
2022-11-24T21:23:45.114Z,8.07
2022-11-24T21:26:16.564Z,8.07
2022-11-24T21:28:46.164Z,7.96
2022-11-24T21:31:18.034Z,7.81
2022-11-24T21:33:46.859Z,8.04
2022-11-24T21:36:19.761Z,7.70
2022-11-24T21:38:57.460Z,8.44
2022-11-24T21:41:26.390Z,8.12
2022-11-24T21:43:55.983Z,8.14
2022-11-24T21:46:22.945Z,8.16
2022-11-24T21:48:49.764Z,7.77
2022-11-24T21:51:18.762Z,7.19
2022-11-24T21:53:46.339Z,7.66
2022-11-24T21:56:15.373Z,7.58
2022-11-24T21:58:53.617Z,7.92
2022-11-24T22:01:22.459Z,8.29
2022-11-24T22:03:49.584Z,7.98
2022-11-24T22:06:19.145Z,8.21
2022-11-24T22:08:47.048Z,8.00
2022-11-24T22:11:18.601Z,8.03
2022-11-24T22:13:46.070Z,7.92
2022-11-24T22:16:15.874Z,7.66
2022-11-24T22:18:44.472Z,7.73
2022-11-24T22:21:13.761Z,8.53
2022-11-24T22:23:40.506Z,8.16
2022-11-24T22:26:15.969Z,8.51
2022-11-24T22:28:44.059Z,8.40
2022-11-24T22:31:14.538Z,7.94
2022-11-24T22:33:41.442Z,7.99
2022-11-24T22:36:08.573Z,8.01
2022-11-24T22:38:35.334Z,7.84
2022-11-24T22:41:15.996Z,7.81
2022-11-24T22:43:43.574Z,7.90
2022-11-24T22:46:13.288Z,7.20
2022-11-24T22:48:40.884Z,7.64
2022-11-24T22:51:10.782Z,7.27
2022-11-24T22:53:38.094Z,7.51
2022-11-24T22:56:07.488Z,8.05
2022-11-24T22:58:34.230Z,8.17
2022-11-24T23:01:18.795Z,8.06
2022-11-24T23:03:46.050Z,8.01
2022-11-24T23:06:23.762Z,8.07
2022-11-24T23:08:51.402Z,7.92
2022-11-24T23:11:29.123Z,7.92
2022-11-24T23:14:00.567Z,7.80
2022-11-24T23:16:27.767Z,7.59
2022-11-24T23:18:54.855Z,8.15
2022-11-24T23:21:23.266Z,7.75
2022-11-24T23:23:50.741Z,7.51
2022-11-24T23:26:23.183Z,7.75
2022-11-24T23:28:50.265Z,7.63
2022-11-24T23:31:21.500Z,7.55
2022-11-24T23:33:48.337Z,7.98
2022-11-24T23:36:19.416Z,7.97
2022-11-24T23:38:47.233Z,7.70
2022-11-24T23:41:19.392Z,8.26
2022-11-24T23:43:46.277Z,7.90
2022-11-24T23:46:21.364Z,7.26
2022-11-24T23:48:49.203Z,7.14
2022-11-24T23:51:21.127Z,7.81
2022-11-24T23:53:48.640Z,7.79
2022-11-24T23:56:18.155Z,7.89
2022-11-24T23:58:45.378Z,7.67
